• Join FlightAware (Why Join?)
  • Login
  • US Flag 
07:34PM EDT


 

Airport Tracker/Info


-or-


 

Live Flight TrackerFlight Track Log ✈ PDT4314 ✈ 21-Oct-2013 ✈ KPHL - KBGM

Flight Track Log - Related Links

Times and Time Zones

All times are in EDT time to prevent confusion due to time zone crossing. See the PDT4314 flight status page for this flight to view local times or setup timezone preferences in your user account.

Time Position Orientation Groundspeed Altitude Reporting Facility
EDT Latitude Longitude Course Direction KTS MPH feet Rate Location/Type
04:32PM 39.9000 -75.2333 293° West 126 145 600  Level Philadelphia TRACON
04:33PM 39.9167 -75.2833 294° West 145 167 1,900 1,380 Climbing Philadelphia TRACON
04:34PM 40.0700 -75.3014 323° Northwest  Level Estimated
04:34PM 39.9333 -75.3333 294° West 143 165 3,400  Level Philadelphia TRACON
04:34PM 39.9500 -75.3667 303° West 149 171 4,300 1,200 Climbing Philadelphia TRACON
04:35PM 40.1359 -75.3216 311° West  Level Estimated
04:36PM 40.2018 -75.3419 311° West  Level Estimated
04:36PM 39.9500 -75.4167 270° West 138 159 5,700  Level Philadelphia TRACON
04:36PM 39.9333 -75.4667 247° West 134 154 6,700 1,140 Climbing Philadelphia TRACON
04:37PM 40.2281 -75.4236 293° West  Level FlightAware Approximate
04:38PM 39.9500 -75.5000 303° West 158 182 8,000  Level Philadelphia TRACON
04:39PM 40.0000 -75.5000 360° North 179 206 9,000 420 Climbing Philadelphia TRACON
04:40PM 40.0664 -75.5067 356° North 230 265 9,000 420 Level New York Center
04:41PM 40.1219 -75.5214 349° North 219 252 10,000 900 Climbing New York Center
04:42PM 40.1775 -75.5442 343° North 206 237 10,900 900 Climbing New York Center
04:43PM 40.2308 -75.5614 346° North 200 230 11,900 540 Climbing New York Center
04:44PM 40.2603 -75.6097 309° West 182 209 12,000  Climbing New York Center
04:45PM 40.2953 -75.6692 308° West 196 226 12,000  Level New York Center
04:46PM 40.3542 -75.7089 333° Northwest 209 241 12,000  Level New York Center
04:47PM 40.4247 -75.7111 359° North 234 269 12,000  Level New York Center
04:48PM 40.4908 -75.7294 348° North 241 277 12,000  Level New York Center
04:49PM 40.5528 -75.7394 353° North 241 277 12,000  Level New York Center
04:50PM 40.6233 -75.7472 355° North 246 283 12,000  Level New York Center
04:51PM 40.6981 -75.7556 355° North 246 283 12,000  Level New York Center
04:52PM 40.7683 -75.7717 350° North 251 289 12,000 -240 Level New York Center
04:53PM 40.8367 -75.7819 354° North 251 289 11,600  Descending New York Center
04:54PM 40.8947 -75.7892 355° North 251 289 12,000 180 Climbing New York Center
04:55PM 40.9583 -75.8075 348° North 239 275 12,000 -60 Level New York Center
04:56PM 41.0350 -75.8161 355° North 239 275 11,900 -60 Descending New York Center
04:57PM 41.0994 -75.8208 357° North 245 282 11,900 -60 Level New York Center
04:58PM 41.1678 -75.8314 353° North 250 288 11,800 -600 Descending New York Center
04:59PM 41.2506 -75.8431 354° North 255 293 10,700 -780 Descending New York Center
05:00PM 41.3253 -75.8514 355° North 260 299 10,300 -360 Descending New York Center
05:01PM 41.3975 -75.8681 350° North 260 299 10,000 -180 Descending New York Center
05:02PM 41.4683 -75.8678 360° North 260 299 10,000  Level New York Center
05:03PM 41.5306 -75.8753 355° North 254 292 10,000 -120 Level New York Center
05:04PM 41.6067 -75.8922 351° North 254 292 9,800 -360 Descending New York Center
05:05PM 41.6792 -75.9006 355° North 259 298 9,300 -420 Descending New York Center
05:06PM 41.7497 -75.9089 355° North 259 298 9,000 -540 Descending New York Center
05:07PM 41.8136 -75.9222 351° North 253 291 8,300 -900 Descending New York Center
05:08PM 41.8881 -75.9333 354° North 253 291 7,300 -1,080 Descending New York Center
05:09PM 41.9689 -75.9453 354° North 258 297 6,200 -1,020 Descending New York Center
05:10PM 42.0411 -75.9622 350° North 258 297 5,300 -840 Descending New York Center
05:11PM 42.1111 -75.9789 350° North 258 297 4,600 -600 Descending New York Center
05:12PM 42.1656 -76.0167 333° Northwest 236 272 4,100 -660 Descending New York Center
05:13PM 42.2147 -76.0375 343° North 207 238 3,300 -660 Descending New York Center
05:14PM 42.2558 -76.0492 348° North 177 204 2,800 -360 Descending New York Center
05:15PM 42.2511 -76.0150 101° East 67 77 2,600 -300 Descending New York Center
05:16PM 42.2372 -75.9944 132° Southeast 48 55 2,200 -420 Descending New York Center